sensor_id;sensor_type;location;lat;lon;timestamp;noise_LAeq;noise_LA_min;noise_LA_max;noise_LA01;noise_LA95
46393;Laerm;32099;53.588;10.176;2023-07-29T00:00:13;45.09;32.82;64.70;;
46393;Laerm;32099;53.588;10.176;2023-07-29T00:02:39;34.82;32.66;40.81;;
46393;Laerm;32099;53.588;10.176;2023-07-29T00:05:04;35.69;32.45;48.50;;
46393;Laerm;32099;53.588;10.176;2023-07-29T00:07:30;35.29;32.47;42.53;;
46393;Laerm;32099;53.588;10.176;2023-07-29T00:09:55;34.69;32.86;38.31;;
46393;Laerm;32099;53.588;10.176;2023-07-29T00:12:20;35.11;32.69;42.43;;
46393;Laerm;32099;53.588;10.176;2023-07-29T00:14:46;48.94;32.30;69.37;;
46393;Laerm;32099;53.588;10.176;2023-07-29T00:17:11;35.02;32.92;43.29;;
46393;Laerm;32099;53.588;10.176;2023-07-29T00:19:36;46.30;33.00;67.73;;
46393;Laerm;32099;53.588;10.176;2023-07-29T00:22:02;34.66;32.86;39.72;;
46393;Laerm;32099;53.588;10.176;2023-07-29T00:24:27;35.30;32.90;41.62;;
46393;Laerm;32099;53.588;10.176;2023-07-29T00:26:53;35.44;33.11;40.74;;
46393;Laerm;32099;53.588;10.176;2023-07-29T00:29:18;34.84;32.67;45.48;;
46393;Laerm;32099;53.588;10.176;2023-07-29T00:31:43;34.54;32.54;43.07;;
46393;Laerm;32099;53.588;10.176;2023-07-29T00:34:08;34.96;32.86;38.64;;
46393;Laerm;32099;53.588;10.176;2023-07-29T00:36:34;35.56;33.34;40.24;;
46393;Laerm;32099;53.588;10.176;2023-07-29T00:38:59;35.11;32.97;38.12;;
46393;Laerm;32099;53.588;10.176;2023-07-29T00:41:25;35.80;33.12;43.72;;
46393;Laerm;32099;53.588;10.176;2023-07-29T00:43:51;36.93;33.57;48.10;;
46393;Laerm;32099;53.588;10.176;2023-07-29T00:46:16;36.51;33.57;48.02;;
46393;Laerm;32099;53.588;10.176;2023-07-29T00:48:42;35.73;32.90;42.51;;
46393;Laerm;32099;53.588;10.176;2023-07-29T00:51:07;41.09;32.77;71.50;;
46393;Laerm;32099;53.588;10.176;2023-07-29T00:53:33;35.67;32.88;44.52;;
46393;Laerm;32099;53.588;10.176;2023-07-29T00:55:58;35.25;32.71;40.93;;
46393;Laerm;32099;53.588;10.176;2023-07-29T00:58:24;43.21;33.03;62.71;;
46393;Laerm;32099;53.588;10.176;2023-07-29T01:00:50;38.26;33.02;53.09;;
46393;Laerm;32099;53.588;10.176;2023-07-29T01:03:16;34.68;32.73;42.75;;
46393;Laerm;32099;53.588;10.176;2023-07-29T01:06:20;35.17;32.43;44.62;;
46393;Laerm;32099;53.588;10.176;2023-07-29T01:14:39;35.36;33.10;44.70;;
46393;Laerm;32099;53.588;10.176;2023-07-29T01:17:09;35.85;33.41;47.45;;
46393;Laerm;32099;53.588;10.176;2023-07-29T01:22:11;36.75;33.54;45.13;;
46393;Laerm;32099;53.588;10.176;2023-07-29T01:24:37;36.17;33.58;43.29;;
46393;Laerm;32099;53.588;10.176;2023-07-29T01:27:02;35.43;33.04;38.82;;
46393;Laerm;32099;53.588;10.176;2023-07-29T01:29:30;35.24;33.27;39.81;;
46393;Laerm;32099;53.588;10.176;2023-07-29T01:31:58;35.93;32.93;43.91;;
46393;Laerm;32099;53.588;10.176;2023-07-29T01:34:29;35.86;32.99;42.51;;
46393;Laerm;32099;53.588;10.176;2023-07-29T01:36:59;35.81;33.13;39.15;;
46393;Laerm;32099;53.588;10.176;2023-07-29T01:39:29;36.49;33.88;45.94;;
46393;Laerm;32099;53.588;10.176;2023-07-29T01:41:57;35.61;33.03;39.56;;
46393;Laerm;32099;53.588;10.176;2023-07-29T01:44:23;35.90;33.30;46.09;;
46393;Laerm;32099;53.588;10.176;2023-07-29T01:46:49;36.87;33.30;49.51;;
46393;Laerm;32099;53.588;10.176;2023-07-29T01:49:15;37.78;34.58;43.76;;
46393;Laerm;32099;53.588;10.176;2023-07-29T01:51:40;37.46;34.01;47.71;;
46393;Laerm;32099;53.588;10.176;2023-07-29T01:54:05;51.65;34.64;74.33;;
46393;Laerm;32099;53.588;10.176;2023-07-29T01:56:31;37.90;35.05;41.61;;
46393;Laerm;32099;53.588;10.176;2023-07-29T01:58:56;38.70;35.19;47.64;;
46393;Laerm;32099;53.588;10.176;2023-07-29T02:01:21;48.57;33.87;71.57;;
46393;Laerm;32099;53.588;10.176;2023-07-29T02:03:47;36.63;34.19;42.08;;
46393;Laerm;32099;53.588;10.176;2023-07-29T02:06:13;43.45;34.89;54.96;;
46393;Laerm;32099;53.588;10.176;2023-07-29T02:08:38;52.78;45.17;60.49;;
46393;Laerm;32099;53.588;10.176;2023-07-29T02:11:06;50.83;44.30;59.37;;
46393;Laerm;32099;53.588;10.176;2023-07-29T02:13:31;57.88;43.62;64.76;;
46393;Laerm;32099;53.588;10.176;2023-07-29T02:15:56;66.48;57.20;76.54;;
46393;Laerm;32099;53.588;10.176;2023-07-29T02:18:22;61.49;55.27;70.34;;
46393;Laerm;32099;53.588;10.176;2023-07-29T02:20:47;57.58;47.79;70.31;;
46393;Laerm;32099;53.588;10.176;2023-07-29T02:23:15;51.13;41.99;69.33;;
46393;Laerm;32099;53.588;10.176;2023-07-29T02:25:42;46.81;40.49;64.95;;
46393;Laerm;32099;53.588;10.176;2023-07-29T02:28:07;45.74;39.83;58.84;;
46393;Laerm;32099;53.588;10.176;2023-07-29T02:30:32;54.06;43.71;62.87;;
46393;Laerm;32099;53.588;10.176;2023-07-29T02:32:58;48.93;41.15;59.55;;
46393;Laerm;32099;53.588;10.176;2023-07-29T02:35:24;44.06;39.07;60.56;;
46393;Laerm;32099;53.588;10.176;2023-07-29T02:37:50;43.48;38.42;61.18;;
46393;Laerm;32099;53.588;10.176;2023-07-29T02:40:15;42.38;37.10;60.32;;
46393;Laerm;32099;53.588;10.176;2023-07-29T02:42:40;41.30;36.78;60.24;;
46393;Laerm;32099;53.588;10.176;2023-07-29T02:45:06;40.99;36.06;58.41;;
46393;Laerm;32099;53.588;10.176;2023-07-29T02:47:34;40.71;35.81;59.61;;
46393;Laerm;32099;53.588;10.176;2023-07-29T02:50:00;40.54;36.34;63.51;;
46393;Laerm;32099;53.588;10.176;2023-07-29T02:52:25;38.98;35.55;55.17;;
46393;Laerm;32099;53.588;10.176;2023-07-29T02:54:50;39.08;35.32;60.34;;
46393;Laerm;32099;53.588;10.176;2023-07-29T02:57:16;49.26;34.90;71.53;;
46393;Laerm;32099;53.588;10.176;2023-07-29T02:59:42;40.41;35.78;56.43;;
46393;Laerm;32099;53.588;10.176;2023-07-29T03:02:07;38.58;34.40;55.46;;
46393;Laerm;32099;53.588;10.176;2023-07-29T03:04:33;38.29;34.20;57.18;;
46393;Laerm;32099;53.588;10.176;2023-07-29T03:06:58;38.02;34.55;54.85;;
46393;Laerm;32099;53.588;10.176;2023-07-29T03:09:24;37.94;34.17;54.58;;
46393;Laerm;32099;53.588;10.176;2023-07-29T03:11:50;45.98;34.48;66.58;;
46393;Laerm;32099;53.588;10.176;2023-07-29T03:14:16;38.84;34.99;56.42;;
46393;Laerm;32099;53.588;10.176;2023-07-29T03:16:42;38.26;34.95;58.11;;
46393;Laerm;32099;53.588;10.176;2023-07-29T03:19:07;39.42;34.57;58.86;;
46393;Laerm;32099;53.588;10.176;2023-07-29T03:21:32;38.68;34.94;54.48;;
46393;Laerm;32099;53.588;10.176;2023-07-29T03:23:58;37.54;34.47;56.67;;
46393;Laerm;32099;53.588;10.176;2023-07-29T03:26:23;37.69;34.66;58.10;;
46393;Laerm;32099;53.588;10.176;2023-07-29T03:28:48;38.40;34.77;58.29;;
46393;Laerm;32099;53.588;10.176;2023-07-29T03:31:14;37.62;33.85;52.95;;
46393;Laerm;32099;53.588;10.176;2023-07-29T03:33:39;37.62;34.57;52.12;;
46393;Laerm;32099;53.588;10.176;2023-07-29T03:36:04;37.07;33.83;55.97;;
46393;Laerm;32099;53.588;10.176;2023-07-29T03:38:30;39.51;34.35;59.12;;
46393;Laerm;32099;53.588;10.176;2023-07-29T03:40:56;37.25;34.09;51.41;;
46393;Laerm;32099;53.588;10.176;2023-07-29T03:43:22;37.32;33.68;52.39;;
46393;Laerm;32099;53.588;10.176;2023-07-29T03:45:47;47.35;34.04;68.15;;
46393;Laerm;32099;53.588;10.176;2023-07-29T03:48:12;37.81;33.67;51.85;;
46393;Laerm;32099;53.588;10.176;2023-07-29T03:50:38;38.52;33.91;56.97;;
46393;Laerm;32099;53.588;10.176;2023-07-29T03:53:03;38.80;34.30;62.56;;
46393;Laerm;32099;53.588;10.176;2023-07-29T03:55:29;37.31;34.14;56.54;;
46393;Laerm;32099;53.588;10.176;2023-07-29T03:57:58;36.81;33.83;52.26;;
46393;Laerm;32099;53.588;10.176;2023-07-29T04:00:24;38.37;34.06;65.43;;
46393;Laerm;32099;53.588;10.176;2023-07-29T04:02:49;36.85;33.55;50.49;;
46393;Laerm;32099;53.588;10.176;2023-07-29T04:05:14;36.68;33.63;52.98;;
46393;Laerm;32099;53.588;10.176;2023-07-29T04:07:40;36.90;33.96;59.17;;
46393;Laerm;32099;53.588;10.176;2023-07-29T04:10:06;39.24;34.09;56.92;;
46393;Laerm;32099;53.588;10.176;2023-07-29T04:12:32;48.77;34.79;68.07;;
46393;Laerm;32099;53.588;10.176;2023-07-29T04:14:57;39.05;34.20;56.27;;
46393;Laerm;32099;53.588;10.176;2023-07-29T04:17:22;42.38;33.61;62.68;;
46393;Laerm;32099;53.588;10.176;2023-07-29T04:19:48;47.08;33.33;68.64;;
46393;Laerm;32099;53.588;10.176;2023-07-29T04:22:14;50.41;34.24;62.79;;
46393;Laerm;32099;53.588;10.176;2023-07-29T04:24:39;53.16;33.41;74.96;;
46393;Laerm;32099;53.588;10.176;2023-07-29T04:27:04;39.25;33.00;54.30;;
46393;Laerm;32099;53.588;10.176;2023-07-29T04:29:30;42.74;33.04;54.85;;
46393;Laerm;32099;53.588;10.176;2023-07-29T04:31:55;45.03;33.96;74.47;;
46393;Laerm;32099;53.588;10.176;2023-07-29T04:34:21;38.60;34.53;50.56;;
46393;Laerm;32099;53.588;10.176;2023-07-29T04:36:47;47.22;33.81;59.22;;
46393;Laerm;32099;53.588;10.176;2023-07-29T04:39:12;43.76;34.06;56.95;;
46393;Laerm;32099;53.588;10.176;2023-07-29T04:41:38;38.18;33.49;53.34;;
46393;Laerm;32099;53.588;10.176;2023-07-29T04:44:03;50.05;34.21;62.85;;
46393;Laerm;32099;53.588;10.176;2023-07-29T04:46:29;40.75;33.67;54.24;;
46393;Laerm;32099;53.588;10.176;2023-07-29T04:48:54;37.83;33.34;51.56;;
46393;Laerm;32099;53.588;10.176;2023-07-29T04:51:19;38.97;33.53;66.10;;
46393;Laerm;32099;53.588;10.176;2023-07-29T04:53:45;37.43;33.58;59.95;;
46393;Laerm;32099;53.588;10.176;2023-07-29T04:56:10;45.53;33.89;62.12;;
46393;Laerm;32099;53.588;10.176;2023-07-29T04:58:36;36.28;33.57;48.95;;
46393;Laerm;32099;53.588;10.176;2023-07-29T05:01:02;37.38;33.43;49.71;;
46393;Laerm;32099;53.588;10.176;2023-07-29T05:03:28;39.33;33.64;54.93;;
46393;Laerm;32099;53.588;10.176;2023-07-29T05:05:53;50.63;34.49;63.02;;
46393;Laerm;32099;53.588;10.176;2023-07-29T05:08:20;41.27;33.74;61.26;;
46393;Laerm;32099;53.588;10.176;2023-07-29T05:10:49;50.22;34.00;69.71;;
46393;Laerm;32099;53.588;10.176;2023-07-29T05:13:15;36.81;33.43;49.11;;
46393;Laerm;32099;53.588;10.176;2023-07-29T05:15:41;39.32;33.94;49.61;;
46393;Laerm;32099;53.588;10.176;2023-07-29T05:18:06;43.88;33.58;63.89;;
46393;Laerm;32099;53.588;10.176;2023-07-29T05:20:32;37.06;33.81;44.95;;
46393;Laerm;32099;53.588;10.176;2023-07-29T05:22:57;43.90;34.15;60.77;;
46393;Laerm;32099;53.588;10.176;2023-07-29T05:25:22;47.42;34.33;67.66;;
46393;Laerm;32099;53.588;10.176;2023-07-29T05:27:48;38.13;33.82;53.44;;
46393;Laerm;32099;53.588;10.176;2023-07-29T05:30:13;47.18;34.13;66.25;;
46393;Laerm;32099;53.588;10.176;2023-07-29T05:32:38;37.00;33.69;52.54;;
46393;Laerm;32099;53.588;10.176;2023-07-29T05:35:04;37.14;33.35;49.46;;
46393;Laerm;32099;53.588;10.176;2023-07-29T05:37:29;36.91;33.82;47.39;;
46393;Laerm;32099;53.588;10.176;2023-07-29T05:39:54;38.54;34.14;51.79;;
46393;Laerm;32099;53.588;10.176;2023-07-29T05:42:20;45.64;34.58;65.91;;
46393;Laerm;32099;53.588;10.176;2023-07-29T05:44:45;38.74;34.55;50.80;;
46393;Laerm;32099;53.588;10.176;2023-07-29T05:47:10;40.23;34.98;57.00;;
46393;Laerm;32099;53.588;10.176;2023-07-29T05:49:35;60.02;34.52;95.23;;
46393;Laerm;32099;53.588;10.176;2023-07-29T05:52:01;47.29;36.75;64.04;;
46393;Laerm;32099;53.588;10.176;2023-07-29T05:54:26;48.46;35.60;66.87;;
46393;Laerm;32099;53.588;10.176;2023-07-29T05:56:51;41.74;35.09;52.49;;
46393;Laerm;32099;53.588;10.176;2023-07-29T05:59:17;39.90;34.61;52.15;;
46393;Laerm;32099;53.588;10.176;2023-07-29T06:01:42;44.32;34.24;63.06;;
46393;Laerm;32099;53.588;10.176;2023-07-29T06:04:07;48.79;34.65;63.33;;
46393;Laerm;32099;53.588;10.176;2023-07-29T06:06:33;44.67;34.81;64.91;;
46393;Laerm;32099;53.588;10.176;2023-07-29T06:08:58;50.20;34.88;70.08;;
46393;Laerm;32099;53.588;10.176;2023-07-29T06:11:23;49.86;34.33;67.45;;
46393;Laerm;32099;53.588;10.176;2023-07-29T06:13:49;46.69;34.23;66.46;;
46393;Laerm;32099;53.588;10.176;2023-07-29T06:16:14;37.83;34.83;45.68;;
46393;Laerm;32099;53.588;10.176;2023-07-29T06:18:39;47.41;35.33;68.06;;
46393;Laerm;32099;53.588;10.176;2023-07-29T06:21:04;37.00;34.48;45.38;;
46393;Laerm;32099;53.588;10.176;2023-07-29T06:23:33;37.42;33.55;46.06;;
46393;Laerm;32099;53.588;10.176;2023-07-29T06:25:58;52.12;33.94;68.70;;
46393;Laerm;32099;53.588;10.176;2023-07-29T06:28:25;49.02;34.00;71.40;;
46393;Laerm;32099;53.588;10.176;2023-07-29T06:30:50;37.22;33.87;52.76;;
46393;Laerm;32099;53.588;10.176;2023-07-29T06:33:16;37.38;33.75;51.99;;
46393;Laerm;32099;53.588;10.176;2023-07-29T06:35:41;47.84;33.63;69.91;;
46393;Laerm;32099;53.588;10.176;2023-07-29T06:38:06;50.16;35.23;68.91;;
46393;Laerm;32099;53.588;10.176;2023-07-29T06:40:32;48.82;33.82;70.31;;
46393;Laerm;32099;53.588;10.176;2023-07-29T06:42:57;46.12;33.82;65.88;;
46393;Laerm;32099;53.588;10.176;2023-07-29T06:45:22;44.17;33.67;63.09;;
46393;Laerm;32099;53.588;10.176;2023-07-29T06:47:47;49.70;33.32;73.98;;
46393;Laerm;32099;53.588;10.176;2023-07-29T06:50:13;37.48;33.92;49.17;;
46393;Laerm;32099;53.588;10.176;2023-07-29T06:52:38;43.04;34.10;62.74;;
46393;Laerm;32099;53.588;10.176;2023-07-29T06:55:05;37.48;33.95;49.78;;
46393;Laerm;32099;53.588;10.176;2023-07-29T06:57:31;52.52;34.30;67.00;;
46393;Laerm;32099;53.588;10.176;2023-07-29T06:59:56;38.05;34.34;53.39;;
46393;Laerm;32099;53.588;10.176;2023-07-29T07:02:21;45.28;34.16;64.98;;
46393;Laerm;32099;53.588;10.176;2023-07-29T07:04:46;38.75;34.22;55.14;;
46393;Laerm;32099;53.588;10.176;2023-07-29T07:07:12;36.82;33.89;50.36;;
46393;Laerm;32099;53.588;10.176;2023-07-29T07:09:37;47.61;33.97;66.78;;
46393;Laerm;32099;53.588;10.176;2023-07-29T07:12:02;45.66;34.23;65.01;;
46393;Laerm;32099;53.588;10.176;2023-07-29T07:14:28;39.67;33.69;53.15;;
46393;Laerm;32099;53.588;10.176;2023-07-29T07:16:53;38.38;34.31;53.93;;
46393;Laerm;32099;53.588;10.176;2023-07-29T07:19:18;48.68;33.50;74.56;;
46393;Laerm;32099;53.588;10.176;2023-07-29T07:21:43;50.14;34.13;67.35;;
46393;Laerm;32099;53.588;10.176;2023-07-29T07:24:09;50.35;34.27;70.74;;
46393;Laerm;32099;53.588;10.176;2023-07-29T07:26:34;51.16;33.91;69.85;;
46393;Laerm;32099;53.588;10.176;2023-07-29T07:28:59;50.39;34.17;68.99;;
46393;Laerm;32099;53.588;10.176;2023-07-29T07:31:25;53.26;34.79;72.56;;
46393;Laerm;32099;53.588;10.176;2023-07-29T07:33:50;40.75;33.88;74.79;;
46393;Laerm;32099;53.588;10.176;2023-07-29T07:36:15;49.48;35.17;68.48;;
46393;Laerm;32099;53.588;10.176;2023-07-29T07:38:41;47.53;35.95;68.67;;
46393;Laerm;32099;53.588;10.176;2023-07-29T07:41:06;54.81;34.88;74.82;;
46393;Laerm;32099;53.588;10.176;2023-07-29T07:43:31;51.83;34.46;70.91;;
46393;Laerm;32099;53.588;10.176;2023-07-29T07:46:00;51.97;34.70;71.60;;
46393;Laerm;32099;53.588;10.176;2023-07-29T07:48:27;51.12;33.47;69.13;;
46393;Laerm;32099;53.588;10.176;2023-07-29T07:50:52;36.50;33.78;43.95;;
46393;Laerm;32099;53.588;10.176;2023-07-29T07:53:18;37.38;34.10;48.26;;
46393;Laerm;32099;53.588;10.176;2023-07-29T07:55:45;49.01;34.38;68.64;;
46393;Laerm;32099;53.588;10.176;2023-07-29T07:58:10;50.42;34.51;69.42;;
46393;Laerm;32099;53.588;10.176;2023-07-29T08:00:35;38.41;34.78;48.46;;
46393;Laerm;32099;53.588;10.176;2023-07-29T08:03:00;52.33;34.91;74.37;;
46393;Laerm;32099;53.588;10.176;2023-07-29T08:05:26;55.53;36.16;72.42;;
46393;Laerm;32099;53.588;10.176;2023-07-29T08:07:51;45.76;35.11;64.93;;
46393;Laerm;32099;53.588;10.176;2023-07-29T08:10:16;47.07;34.78;64.83;;
46393;Laerm;32099;53.588;10.176;2023-07-29T08:12:42;39.18;35.42;54.00;;
46393;Laerm;32099;53.588;10.176;2023-07-29T08:15:07;40.02;35.36;51.53;;
46393;Laerm;32099;53.588;10.176;2023-07-29T08:17:32;50.18;35.38;66.23;;
46393;Laerm;32099;53.588;10.176;2023-07-29T08:19:58;39.08;34.26;52.66;;
46393;Laerm;32099;53.588;10.176;2023-07-29T08:22:23;44.47;34.23;62.67;;
46393;Laerm;32099;53.588;10.176;2023-07-29T08:24:48;55.20;34.70;74.71;;
46393;Laerm;32099;53.588;10.176;2023-07-29T08:27:13;46.08;34.61;64.53;;
46393;Laerm;32099;53.588;10.176;2023-07-29T08:29:39;40.56;34.79;60.61;;
46393;Laerm;32099;53.588;10.176;2023-07-29T08:32:05;40.20;34.89;51.21;;
46393;Laerm;32099;53.588;10.176;2023-07-29T08:34:30;50.94;35.32;68.50;;
46393;Laerm;32099;53.588;10.176;2023-07-29T08:36:55;43.69;35.78;59.40;;
46393;Laerm;32099;53.588;10.176;2023-07-29T08:39:21;55.29;35.26;71.72;;
46393;Laerm;32099;53.588;10.176;2023-07-29T08:41:56;47.15;34.91;67.16;;
46393;Laerm;32099;53.588;10.176;2023-07-29T08:44:26;53.44;36.00;74.18;;
46393;Laerm;32099;53.588;10.176;2023-07-29T08:46:52;52.89;39.96;66.52;;
46393;Laerm;32099;53.588;10.176;2023-07-29T08:49:19;52.79;35.59;69.25;;
46393;Laerm;32099;53.588;10.176;2023-07-29T08:51:45;49.39;35.59;66.23;;
46393;Laerm;32099;53.588;10.176;2023-07-29T08:54:12;40.72;35.61;53.76;;
46393;Laerm;32099;53.588;10.176;2023-07-29T08:56:38;47.46;36.57;66.29;;
46393;Laerm;32099;53.588;10.176;2023-07-29T08:59:04;51.39;36.81;66.99;;
46393;Laerm;32099;53.588;10.176;2023-07-29T09:01:30;48.29;34.98;68.08;;
46393;Laerm;32099;53.588;10.176;2023-07-29T09:03:56;49.79;35.46;70.02;;
46393;Laerm;32099;53.588;10.176;2023-07-29T09:06:21;47.49;35.04;67.30;;
46393;Laerm;32099;53.588;10.176;2023-07-29T09:08:49;45.45;34.65;63.92;;
46393;Laerm;32099;53.588;10.176;2023-07-29T09:11:16;47.15;34.74;64.63;;
46393;Laerm;32099;53.588;10.176;2023-07-29T09:13:42;50.23;35.60;66.18;;
46393;Laerm;32099;53.588;10.176;2023-07-29T09:16:08;48.85;35.41;68.05;;
46393;Laerm;32099;53.588;10.176;2023-07-29T09:18:34;48.38;34.96;68.34;;
46393;Laerm;32099;53.588;10.176;2023-07-29T09:20:59;44.69;35.37;62.07;;
46393;Laerm;32099;53.588;10.176;2023-07-29T09:23:26;51.57;35.93;68.04;;
46393;Laerm;32099;53.588;10.176;2023-07-29T09:26:00;53.32;35.02;69.74;;
46393;Laerm;32099;53.588;10.176;2023-07-29T09:28:25;51.03;36.16;72.55;;
46393;Laerm;32099;53.588;10.176;2023-07-29T09:30:52;46.68;38.72;63.10;;
46393;Laerm;32099;53.588;10.176;2023-07-29T09:33:18;45.24;38.53;67.10;;
46393;Laerm;32099;53.588;10.176;2023-07-29T09:35:44;51.56;37.87;71.69;;
46393;Laerm;32099;53.588;10.176;2023-07-29T09:38:14;48.98;39.42;66.11;;
46393;Laerm;32099;53.588;10.176;2023-07-29T09:40:41;47.83;38.03;62.54;;
46393;Laerm;32099;53.588;10.176;2023-07-29T09:43:09;54.10;40.22;72.25;;
46393;Laerm;32099;53.588;10.176;2023-07-29T09:45:35;51.92;36.98;67.82;;
46393;Laerm;32099;53.588;10.176;2023-07-29T09:48:02;55.12;40.08;69.71;;
46393;Laerm;32099;53.588;10.176;2023-07-29T09:50:28;51.94;37.95;70.58;;
46393;Laerm;32099;53.588;10.176;2023-07-29T09:52:54;51.98;37.32;69.40;;
46393;Laerm;32099;53.588;10.176;2023-07-29T09:55:24;51.15;37.14;69.90;;
46393;Laerm;32099;53.588;10.176;2023-07-29T09:57:57;50.37;37.31;69.55;;
46393;Laerm;32099;53.588;10.176;2023-07-29T10:00:24;50.92;36.84;67.75;;
46393;Laerm;32099;53.588;10.176;2023-07-29T10:02:50;51.20;38.80;69.62;;
46393;Laerm;32099;53.588;10.176;2023-07-29T10:05:16;45.71;40.26;61.19;;
46393;Laerm;32099;53.588;10.176;2023-07-29T10:07:41;51.19;40.55;67.96;;
46393;Laerm;32099;53.588;10.176;2023-07-29T10:10:08;51.67;34.72;72.09;;
46393;Laerm;32099;53.588;10.176;2023-07-29T10:12:35;49.52;34.46;67.19;;
46393;Laerm;32099;53.588;10.176;2023-07-29T10:15:03;38.91;34.01;61.67;;
46393;Laerm;32099;53.588;10.176;2023-07-29T10:17:29;49.71;35.48;68.19;;
46393;Laerm;32099;53.588;10.176;2023-07-29T10:19:55;48.42;34.72;69.04;;
46393;Laerm;32099;53.588;10.176;2023-07-29T10:22:24;52.35;35.20;70.85;;
46393;Laerm;32099;53.588;10.176;2023-07-29T10:24:51;47.25;34.91;66.00;;
46393;Laerm;32099;53.588;10.176;2023-07-29T10:27:19;53.91;36.51;70.55;;
46393;Laerm;32099;53.588;10.176;2023-07-29T10:29:45;48.93;35.46;67.88;;
46393;Laerm;32099;53.588;10.176;2023-07-29T10:32:11;50.78;35.30;71.56;;
46393;Laerm;32099;53.588;10.176;2023-07-29T10:34:37;48.10;34.80;64.73;;
46393;Laerm;32099;53.588;10.176;2023-07-29T10:37:04;48.40;35.71;66.60;;
46393;Laerm;32099;53.588;10.176;2023-07-29T10:39:40;56.98;36.83;78.44;;
46393;Laerm;32099;53.588;10.176;2023-07-29T10:42:06;48.73;36.47;68.45;;
46393;Laerm;32099;53.588;10.176;2023-07-29T10:47:12;52.54;35.55;71.05;;
46393;Laerm;32099;53.588;10.176;2023-07-29T10:49:45;52.64;34.88;75.57;;
46393;Laerm;32099;53.588;10.176;2023-07-29T10:52:16;53.02;34.25;74.69;;
46393;Laerm;32099;53.588;10.176;2023-07-29T10:54:52;38.94;33.53;61.87;;
46393;Laerm;32099;53.588;10.176;2023-07-29T10:57:39;49.32;35.51;67.17;;
46393;Laerm;32099;53.588;10.176;2023-07-29T11:00:07;53.20;34.97;70.72;;
46393;Laerm;32099;53.588;10.176;2023-07-29T11:02:37;48.12;35.10;70.27;;
46393;Laerm;32099;53.588;10.176;2023-07-29T11:05:21;44.46;35.40;58.20;;
46393;Laerm;32099;53.588;10.176;2023-07-29T11:07:49;60.42;38.81;76.58;;
46393;Laerm;32099;53.588;10.176;2023-07-29T11:10:15;53.71;36.76;69.91;;
46393;Laerm;32099;53.588;10.176;2023-07-29T11:12:45;43.68;35.54;59.99;;
46393;Laerm;32099;53.588;10.176;2023-07-29T11:15:22;50.16;34.11;72.25;;
46393;Laerm;32099;53.588;10.176;2023-07-29T11:20:22;45.22;35.90;61.28;;
46393;Laerm;32099;53.588;10.176;2023-07-29T11:22:48;48.76;34.64;66.77;;
46393;Laerm;32099;53.588;10.176;2023-07-29T11:25:16;50.75;34.70;69.73;;
46393;Laerm;32099;53.588;10.176;2023-07-29T11:27:43;51.40;34.60;72.12;;
46393;Laerm;32099;53.588;10.176;2023-07-29T11:30:13;45.29;36.03;62.89;;
46393;Laerm;32099;53.588;10.176;2023-07-29T11:32:40;43.16;34.90;71.08;;
46393;Laerm;32099;53.588;10.176;2023-07-29T11:35:11;49.89;36.31;68.88;;
46393;Laerm;32099;53.588;10.176;2023-07-29T11:37:44;50.31;36.86;70.25;;
46393;Laerm;32099;53.588;10.176;2023-07-29T11:40:14;51.92;36.58;69.21;;
46393;Laerm;32099;53.588;10.176;2023-07-29T11:42:40;45.73;35.18;65.68;;
46393;Laerm;32099;53.588;10.176;2023-07-29T11:45:06;40.84;35.00;57.69;;
46393;Laerm;32099;53.588;10.176;2023-07-29T11:47:32;48.14;36.98;68.61;;
46393;Laerm;32099;53.588;10.176;2023-07-29T11:50:03;42.18;36.45;63.84;;
46393;Laerm;32099;53.588;10.176;2023-07-29T11:52:29;50.71;37.40;69.59;;
46393;Laerm;32099;53.588;10.176;2023-07-29T11:54:56;51.10;35.94;69.21;;
46393;Laerm;32099;53.588;10.176;2023-07-29T11:57:23;52.38;36.56;68.55;;
46393;Laerm;32099;53.588;10.176;2023-07-29T11:59:49;45.17;34.55;58.62;;
46393;Laerm;32099;53.588;10.176;2023-07-29T12:02:16;41.04;34.82;58.56;;
46393;Laerm;32099;53.588;10.176;2023-07-29T12:04:43;51.01;34.84;72.43;;
46393;Laerm;32099;53.588;10.176;2023-07-29T12:07:10;51.54;34.72;73.28;;
46393;Laerm;32099;53.588;10.176;2023-07-29T12:09:36;43.05;35.24;53.66;;
46393;Laerm;32099;53.588;10.176;2023-07-29T12:12:03;55.48;35.77;72.26;;
46393;Laerm;32099;53.588;10.176;2023-07-29T12:14:29;48.22;35.72;70.34;;
46393;Laerm;32099;53.588;10.176;2023-07-29T12:16:54;50.33;36.22;70.27;;
46393;Laerm;32099;53.588;10.176;2023-07-29T12:19:20;47.89;35.88;66.44;;
46393;Laerm;32099;53.588;10.176;2023-07-29T12:21:47;49.64;36.44;67.87;;
46393;Laerm;32099;53.588;10.176;2023-07-29T12:24:13;49.84;37.68;65.43;;
46393;Laerm;32099;53.588;10.176;2023-07-29T12:26:40;49.21;38.14;67.94;;
46393;Laerm;32099;53.588;10.176;2023-07-29T12:29:16;51.52;36.26;70.96;;
46393;Laerm;32099;53.588;10.176;2023-07-29T12:31:42;43.16;36.14;54.48;;
46393;Laerm;32099;53.588;10.176;2023-07-29T12:34:08;41.45;36.42;55.82;;
46393;Laerm;32099;53.588;10.176;2023-07-29T12:36:44;47.15;35.59;65.16;;
46393;Laerm;32099;53.588;10.176;2023-07-29T12:41:42;51.69;38.06;71.99;;
46393;Laerm;32099;53.588;10.176;2023-07-29T12:44:07;42.90;37.56;55.69;;
46393;Laerm;32099;53.588;10.176;2023-07-29T12:46:33;46.33;34.82;64.88;;
46393;Laerm;32099;53.588;10.176;2023-07-29T12:48:58;45.95;34.09;65.46;;
46393;Laerm;32099;53.588;10.176;2023-07-29T12:51:23;52.32;35.83;72.04;;
46393;Laerm;32099;53.588;10.176;2023-07-29T12:53:49;45.54;33.54;63.65;;
46393;Laerm;32099;53.588;10.176;2023-07-29T12:56:14;48.68;34.35;66.04;;
46393;Laerm;32099;53.588;10.176;2023-07-29T12:58:39;53.05;34.95;69.26;;
46393;Laerm;32099;53.588;10.176;2023-07-29T13:01:05;49.95;35.49;68.84;;
46393;Laerm;32099;53.588;10.176;2023-07-29T13:03:31;48.59;35.79;67.41;;
46393;Laerm;32099;53.588;10.176;2023-07-29T13:05:56;42.72;36.68;59.36;;
46393;Laerm;32099;53.588;10.176;2023-07-29T13:08:21;52.18;34.78;69.13;;
46393;Laerm;32099;53.588;10.176;2023-07-29T13:10:48;51.12;38.04;68.38;;
46393;Laerm;32099;53.588;10.176;2023-07-29T13:13:13;53.46;37.66;69.57;;
46393;Laerm;32099;53.588;10.176;2023-07-29T13:15:39;50.46;37.30;70.79;;
46393;Laerm;32099;53.588;10.176;2023-07-29T13:18:04;54.58;39.96;68.60;;
46393;Laerm;32099;53.588;10.176;2023-07-29T13:20:29;40.50;35.99;48.77;;
46393;Laerm;32099;53.588;10.176;2023-07-29T13:22:55;50.08;34.89;68.06;;
46393;Laerm;32099;53.588;10.176;2023-07-29T13:25:20;51.36;35.75;70.36;;
46393;Laerm;32099;53.588;10.176;2023-07-29T13:27:45;39.58;33.90;52.63;;
46393;Laerm;32099;53.588;10.176;2023-07-29T13:30:11;40.15;33.65;55.58;;
46393;Laerm;32099;53.588;10.176;2023-07-29T13:32:36;46.83;34.55;66.45;;
46393;Laerm;32099;53.588;10.176;2023-07-29T13:35:01;58.57;37.86;66.57;;
46393;Laerm;32099;53.588;10.176;2023-07-29T13:37:26;59.53;42.71;67.48;;
46393;Laerm;32099;53.588;10.176;2023-07-29T13:39:52;60.29;51.25;67.05;;
46393;Laerm;32099;53.588;10.176;2023-07-29T13:42:17;60.44;51.13;67.03;;